sensor_id;sensor_type;location;lat;lon;timestamp;P1;durP1;ratioP1;P2;durP2;ratioP2
35114;SDS011;21292;52.416;13.046;2023-08-07T00:00:14;30.58;;;14.25;;
35114;SDS011;21292;52.416;13.046;2023-08-07T00:02:43;25.50;;;14.48;;
35114;SDS011;21292;52.416;13.046;2023-08-07T00:05:11;27.55;;;14.18;;
35114;SDS011;21292;52.416;13.046;2023-08-07T00:07:40;31.58;;;15.10;;
35114;SDS011;21292;52.416;13.046;2023-08-07T00:10:08;25.15;;;14.45;;
35114;SDS011;21292;52.416;13.046;2023-08-07T00:12:37;24.67;;;14.13;;
35114;SDS011;21292;52.416;13.046;2023-08-07T00:15:07;31.00;;;16.05;;
35114;SDS011;21292;52.416;13.046;2023-08-07T00:17:36;32.55;;;15.40;;
35114;SDS011;21292;52.416;13.046;2023-08-07T00:20:05;35.00;;;14.73;;
35114;SDS011;21292;52.416;13.046;2023-08-07T00:22:35;33.63;;;15.77;;
35114;SDS011;21292;52.416;13.046;2023-08-07T00:25:04;34.15;;;15.02;;
35114;SDS011;21292;52.416;13.046;2023-08-07T00:27:33;23.55;;;13.73;;
35114;SDS011;21292;52.416;13.046;2023-08-07T00:30:01;32.33;;;15.00;;
35114;SDS011;21292;52.416;13.046;2023-08-07T00:32:30;27.58;;;15.07;;
35114;SDS011;21292;52.416;13.046;2023-08-07T00:34:59;26.23;;;13.98;;
35114;SDS011;21292;52.416;13.046;2023-08-07T00:37:27;22.75;;;13.38;;
35114;SDS011;21292;52.416;13.046;2023-08-07T00:39:55;27.17;;;14.25;;
35114;SDS011;21292;52.416;13.046;2023-08-07T00:42:23;18.67;;;13.00;;
35114;SDS011;21292;52.416;13.046;2023-08-07T00:44:53;24.00;;;15.05;;
35114;SDS011;21292;52.416;13.046;2023-08-07T00:47:21;25.02;;;13.32;;
35114;SDS011;21292;52.416;13.046;2023-08-07T00:49:51;24.77;;;13.07;;
35114;SDS011;21292;52.416;13.046;2023-08-07T00:52:19;24.77;;;14.00;;
35114;SDS011;21292;52.416;13.046;2023-08-07T00:54:48;25.80;;;13.55;;
35114;SDS011;21292;52.416;13.046;2023-08-07T00:57:16;27.75;;;14.55;;
35114;SDS011;21292;52.416;13.046;2023-08-07T00:59:49;27.02;;;13.82;;
35114;SDS011;21292;52.416;13.046;2023-08-07T01:02:18;25.77;;;13.63;;
35114;SDS011;21292;52.416;13.046;2023-08-07T01:04:46;26.05;;;14.68;;
35114;SDS011;21292;52.416;13.046;2023-08-07T01:07:16;31.63;;;13.80;;
35114;SDS011;21292;52.416;13.046;2023-08-07T01:09:44;27.52;;;13.27;;
35114;SDS011;21292;52.416;13.046;2023-08-07T01:12:13;25.95;;;14.32;;
35114;SDS011;21292;52.416;13.046;2023-08-07T01:14:47;22.60;;;14.88;;
35114;SDS011;21292;52.416;13.046;2023-08-07T01:17:19;25.45;;;14.10;;
35114;SDS011;21292;52.416;13.046;2023-08-07T01:19:50;31.55;;;14.20;;
35114;SDS011;21292;52.416;13.046;2023-08-07T01:22:20;26.13;;;14.30;;
35114;SDS011;21292;52.416;13.046;2023-08-07T01:24:49;26.02;;;14.35;;
35114;SDS011;21292;52.416;13.046;2023-08-07T01:27:27;31.88;;;14.40;;
35114;SDS011;21292;52.416;13.046;2023-08-07T01:30:02;25.37;;;14.27;;
35114;SDS011;21292;52.416;13.046;2023-08-07T01:35:23;23.13;;;14.48;;
35114;SDS011;21292;52.416;13.046;2023-08-07T01:37:55;31.83;;;15.48;;
35114;SDS011;21292;52.416;13.046;2023-08-07T01:40:24;29.38;;;15.85;;
35114;SDS011;21292;52.416;13.046;2023-08-07T01:42:53;26.92;;;15.60;;
35114;SDS011;21292;52.416;13.046;2023-08-07T01:45:22;24.00;;;15.02;;
35114;SDS011;21292;52.416;13.046;2023-08-07T01:47:51;28.55;;;15.40;;
35114;SDS011;21292;52.416;13.046;2023-08-07T01:50:20;27.67;;;14.65;;
35114;SDS011;21292;52.416;13.046;2023-08-07T01:52:49;28.65;;;15.10;;
35114;SDS011;21292;52.416;13.046;2023-08-07T01:55:20;27.48;;;14.93;;
35114;SDS011;21292;52.416;13.046;2023-08-07T01:57:48;24.25;;;15.20;;
35114;SDS011;21292;52.416;13.046;2023-08-07T02:00:17;25.98;;;14.20;;
35114;SDS011;21292;52.416;13.046;2023-08-07T02:02:46;26.55;;;14.15;;
35114;SDS011;21292;52.416;13.046;2023-08-07T02:05:15;22.30;;;15.30;;
35114;SDS011;21292;52.416;13.046;2023-08-07T02:07:43;24.73;;;14.07;;
35114;SDS011;21292;52.416;13.046;2023-08-07T02:10:12;25.38;;;14.20;;
35114;SDS011;21292;52.416;13.046;2023-08-07T02:12:42;28.65;;;14.20;;
35114;SDS011;21292;52.416;13.046;2023-08-07T02:15:10;22.80;;;14.35;;
35114;SDS011;21292;52.416;13.046;2023-08-07T02:17:39;26.70;;;13.90;;
35114;SDS011;21292;52.416;13.046;2023-08-07T02:20:09;34.85;;;14.75;;
35114;SDS011;21292;52.416;13.046;2023-08-07T02:22:38;25.70;;;15.55;;
35114;SDS011;21292;52.416;13.046;2023-08-07T02:25:07;30.27;;;15.43;;
35114;SDS011;21292;52.416;13.046;2023-08-07T02:27:36;24.27;;;14.50;;
35114;SDS011;21292;52.416;13.046;2023-08-07T02:30:06;25.70;;;14.93;;
35114;SDS011;21292;52.416;13.046;2023-08-07T02:32:35;25.88;;;14.82;;
35114;SDS011;21292;52.416;13.046;2023-08-07T02:35:03;30.98;;;15.45;;
35114;SDS011;21292;52.416;13.046;2023-08-07T02:37:32;30.80;;;15.50;;
35114;SDS011;21292;52.416;13.046;2023-08-07T02:40:00;30.95;;;16.65;;
35114;SDS011;21292;52.416;13.046;2023-08-07T02:42:29;27.15;;;16.15;;
35114;SDS011;21292;52.416;13.046;2023-08-07T02:44:57;30.77;;;16.92;;
35114;SDS011;21292;52.416;13.046;2023-08-07T02:47:27;30.58;;;16.83;;
35114;SDS011;21292;52.416;13.046;2023-08-07T02:49:55;33.25;;;16.48;;
35114;SDS011;21292;52.416;13.046;2023-08-07T02:52:23;38.67;;;18.15;;
35114;SDS011;21292;52.416;13.046;2023-08-07T02:54:51;32.30;;;17.58;;
35114;SDS011;21292;52.416;13.046;2023-08-07T02:57:20;29.27;;;17.25;;
35114;SDS011;21292;52.416;13.046;2023-08-07T02:59:48;27.50;;;15.73;;
35114;SDS011;21292;52.416;13.046;2023-08-07T03:02:17;27.85;;;17.15;;
35114;SDS011;21292;52.416;13.046;2023-08-07T03:04:47;32.75;;;17.77;;
35114;SDS011;21292;52.416;13.046;2023-08-07T03:07:15;30.60;;;16.67;;
35114;SDS011;21292;52.416;13.046;2023-08-07T03:09:45;31.73;;;16.60;;
35114;SDS011;21292;52.416;13.046;2023-08-07T03:12:13;28.60;;;17.48;;
35114;SDS011;21292;52.416;13.046;2023-08-07T03:14:41;31.75;;;17.63;;
35114;SDS011;21292;52.416;13.046;2023-08-07T03:17:09;34.67;;;17.92;;
35114;SDS011;21292;52.416;13.046;2023-08-07T03:19:39;33.78;;;17.98;;
35114;SDS011;21292;52.416;13.046;2023-08-07T03:22:11;28.63;;;16.85;;
35114;SDS011;21292;52.416;13.046;2023-08-07T03:24:40;33.88;;;17.35;;
35114;SDS011;21292;52.416;13.046;2023-08-07T03:27:09;40.45;;;18.67;;
35114;SDS011;21292;52.416;13.046;2023-08-07T03:29:37;33.05;;;19.10;;
35114;SDS011;21292;52.416;13.046;2023-08-07T03:32:06;33.53;;;18.48;;
35114;SDS011;21292;52.416;13.046;2023-08-07T03:34:34;24.35;;;17.40;;
35114;SDS011;21292;52.416;13.046;2023-08-07T03:37:03;28.60;;;15.82;;
35114;SDS011;21292;52.416;13.046;2023-08-07T03:39:33;29.60;;;16.55;;
35114;SDS011;21292;52.416;13.046;2023-08-07T03:42:01;30.20;;;16.85;;
35114;SDS011;21292;52.416;13.046;2023-08-07T03:44:29;28.77;;;16.88;;
35114;SDS011;21292;52.416;13.046;2023-08-07T03:47:01;26.60;;;16.17;;
35114;SDS011;21292;52.416;13.046;2023-08-07T03:49:29;74.13;;;55.10;;
35114;SDS011;21292;52.416;13.046;2023-08-07T03:51:57;37.97;;;27.33;;
35114;SDS011;21292;52.416;13.046;2023-08-07T03:54:27;32.00;;;17.10;;
35114;SDS011;21292;52.416;13.046;2023-08-07T03:56:57;25.58;;;16.45;;
35114;SDS011;21292;52.416;13.046;2023-08-07T03:59:25;22.73;;;13.57;;
35114;SDS011;21292;52.416;13.046;2023-08-07T04:01:54;20.85;;;13.27;;
35114;SDS011;21292;52.416;13.046;2023-08-07T04:04:22;27.83;;;14.00;;
35114;SDS011;21292;52.416;13.046;2023-08-07T04:06:50;22.88;;;13.07;;
35114;SDS011;21292;52.416;13.046;2023-08-07T04:09:18;26.23;;;12.30;;
35114;SDS011;21292;52.416;13.046;2023-08-07T04:11:47;17.70;;;11.50;;
35114;SDS011;21292;52.416;13.046;2023-08-07T04:14:16;15.82;;;10.23;;
35114;SDS011;21292;52.416;13.046;2023-08-07T04:16:45;19.00;;;9.82;;
35114;SDS011;21292;52.416;13.046;2023-08-07T04:19:15;14.18;;;10.00;;
35114;SDS011;21292;52.416;13.046;2023-08-07T04:21:43;33.03;;;23.58;;
35114;SDS011;21292;52.416;13.046;2023-08-07T04:24:11;65.03;;;52.13;;
35114;SDS011;21292;52.416;13.046;2023-08-07T04:26:40;15.20;;;9.57;;
35114;SDS011;21292;52.416;13.046;2023-08-07T04:29:08;13.90;;;8.90;;
35114;SDS011;21292;52.416;13.046;2023-08-07T04:31:38;14.90;;;8.63;;
35114;SDS011;21292;52.416;13.046;2023-08-07T04:34:06;13.07;;;8.85;;
35114;SDS011;21292;52.416;13.046;2023-08-07T04:36:35;13.10;;;8.52;;
35114;SDS011;21292;52.416;13.046;2023-08-07T04:39:03;17.38;;;8.27;;
35114;SDS011;21292;52.416;13.046;2023-08-07T04:41:33;16.52;;;8.23;;
35114;SDS011;21292;52.416;13.046;2023-08-07T04:44:02;20.50;;;7.88;;
35114;SDS011;21292;52.416;13.046;2023-08-07T04:46:31;12.02;;;7.45;;
35114;SDS011;21292;52.416;13.046;2023-08-07T04:49:02;37.40;;;27.90;;
35114;SDS011;21292;52.416;13.046;2023-08-07T04:54:02;11.25;;;7.75;;
35114;SDS011;21292;52.416;13.046;2023-08-07T04:56:30;12.23;;;8.05;;
35114;SDS011;21292;52.416;13.046;2023-08-07T04:58:58;13.52;;;7.15;;
35114;SDS011;21292;52.416;13.046;2023-08-07T05:01:27;11.63;;;6.93;;
35114;SDS011;21292;52.416;13.046;2023-08-07T05:03:55;10.18;;;6.85;;
35114;SDS011;21292;52.416;13.046;2023-08-07T05:06:26;9.23;;;6.70;;
35114;SDS011;21292;52.416;13.046;2023-08-07T05:08:54;12.98;;;7.20;;
35114;SDS011;21292;52.416;13.046;2023-08-07T05:11:23;9.05;;;6.35;;
35114;SDS011;21292;52.416;13.046;2023-08-07T05:13:51;10.25;;;5.88;;
35114;SDS011;21292;52.416;13.046;2023-08-07T05:16:19;11.55;;;6.15;;
35114;SDS011;21292;52.416;13.046;2023-08-07T05:18:50;14.93;;;6.88;;
35114;SDS011;21292;52.416;13.046;2023-08-07T05:21:18;8.77;;;5.50;;
35114;SDS011;21292;52.416;13.046;2023-08-07T05:23:48;11.30;;;5.22;;
35114;SDS011;21292;52.416;13.046;2023-08-07T05:26:19;84.03;;;68.65;;
35114;SDS011;21292;52.416;13.046;2023-08-07T05:28:47;9.43;;;7.18;;
35114;SDS011;21292;52.416;13.046;2023-08-07T05:31:16;10.20;;;6.53;;
35114;SDS011;21292;52.416;13.046;2023-08-07T05:33:45;6.97;;;6.15;;
35114;SDS011;21292;52.416;13.046;2023-08-07T05:36:13;6.50;;;5.30;;
35114;SDS011;21292;52.416;13.046;2023-08-07T05:38:41;7.93;;;5.80;;
35114;SDS011;21292;52.416;13.046;2023-08-07T05:41:11;6.43;;;4.70;;
35114;SDS011;21292;52.416;13.046;2023-08-07T05:43:39;6.13;;;3.83;;
35114;SDS011;21292;52.416;13.046;2023-08-07T05:46:08;8.80;;;4.20;;
35114;SDS011;21292;52.416;13.046;2023-08-07T05:48:36;7.10;;;3.85;;
35114;SDS011;21292;52.416;13.046;2023-08-07T05:51:04;8.70;;;3.90;;
35114;SDS011;21292;52.416;13.046;2023-08-07T05:53:34;6.15;;;3.95;;
35114;SDS011;21292;52.416;13.046;2023-08-07T05:56:03;11.77;;;4.00;;
35114;SDS011;21292;52.416;13.046;2023-08-07T05:58:33;8.65;;;4.50;;
35114;SDS011;21292;52.416;13.046;2023-08-07T06:01:01;8.40;;;4.07;;
35114;SDS011;21292;52.416;13.046;2023-08-07T06:03:31;6.68;;;3.72;;
35114;SDS011;21292;52.416;13.046;2023-08-07T06:06:01;4.47;;;3.15;;
35114;SDS011;21292;52.416;13.046;2023-08-07T06:08:29;3.97;;;3.25;;
35114;SDS011;21292;52.416;13.046;2023-08-07T06:10:59;4.50;;;3.05;;
35114;SDS011;21292;52.416;13.046;2023-08-07T06:13:30;8.00;;;3.95;;
35114;SDS011;21292;52.416;13.046;2023-08-07T06:16:04;4.78;;;3.67;;
35114;SDS011;21292;52.416;13.046;2023-08-07T06:18:33;5.45;;;3.55;;
35114;SDS011;21292;52.416;13.046;2023-08-07T06:21:01;5.78;;;3.90;;
35114;SDS011;21292;52.416;13.046;2023-08-07T06:23:30;5.13;;;3.45;;
35114;SDS011;21292;52.416;13.046;2023-08-07T06:25:59;3.85;;;3.35;;
35114;SDS011;21292;52.416;13.046;2023-08-07T06:28:31;5.87;;;3.17;;
35114;SDS011;21292;52.416;13.046;2023-08-07T06:31:00;5.55;;;3.20;;
35114;SDS011;21292;52.416;13.046;2023-08-07T06:33:33;8.10;;;3.55;;
35114;SDS011;21292;52.416;13.046;2023-08-07T06:36:02;6.50;;;3.67;;
35114;SDS011;21292;52.416;13.046;2023-08-07T06:38:30;7.07;;;2.95;;
35114;SDS011;21292;52.416;13.046;2023-08-07T06:40:59;5.45;;;2.95;;
35114;SDS011;21292;52.416;13.046;2023-08-07T06:43:28;4.82;;;2.83;;
35114;SDS011;21292;52.416;13.046;2023-08-07T06:45:56;9.50;;;3.15;;
35114;SDS011;21292;52.416;13.046;2023-08-07T06:48:26;6.95;;;3.22;;
35114;SDS011;21292;52.416;13.046;2023-08-07T06:50:56;8.30;;;2.88;;
35114;SDS011;21292;52.416;13.046;2023-08-07T06:53:24;4.63;;;2.88;;
35114;SDS011;21292;52.416;13.046;2023-08-07T06:55:53;7.13;;;2.38;;
35114;SDS011;21292;52.416;13.046;2023-08-07T06:58:23;5.18;;;3.00;;
35114;SDS011;21292;52.416;13.046;2023-08-07T07:00:52;5.38;;;2.63;;
35114;SDS011;21292;52.416;13.046;2023-08-07T07:03:21;4.22;;;2.40;;
35114;SDS011;21292;52.416;13.046;2023-08-07T07:05:49;8.07;;;3.25;;
35114;SDS011;21292;52.416;13.046;2023-08-07T07:08:20;2.70;;;2.40;;
35114;SDS011;21292;52.416;13.046;2023-08-07T07:10:50;6.75;;;2.53;;
35114;SDS011;21292;52.416;13.046;2023-08-07T07:13:18;3.22;;;2.38;;
35114;SDS011;21292;52.416;13.046;2023-08-07T07:15:52;4.80;;;2.08;;
35114;SDS011;21292;52.416;13.046;2023-08-07T07:18:20;9.02;;;2.90;;
35114;SDS011;21292;52.416;13.046;2023-08-07T07:21:00;6.40;;;2.80;;
35114;SDS011;21292;52.416;13.046;2023-08-07T07:23:33;9.63;;;3.10;;
35114;SDS011;21292;52.416;13.046;2023-08-07T07:26:01;4.80;;;2.35;;
35114;SDS011;21292;52.416;13.046;2023-08-07T07:28:30;6.15;;;2.92;;
35114;SDS011;21292;52.416;13.046;2023-08-07T07:30:59;7.00;;;2.72;;
35114;SDS011;21292;52.416;13.046;2023-08-07T07:33:28;3.65;;;2.13;;
35114;SDS011;21292;52.416;13.046;2023-08-07T07:35:57;3.20;;;2.45;;
35114;SDS011;21292;52.416;13.046;2023-08-07T07:38:26;4.05;;;2.40;;
35114;SDS011;21292;52.416;13.046;2023-08-07T07:40:56;3.10;;;2.30;;
35114;SDS011;21292;52.416;13.046;2023-08-07T07:43:24;3.78;;;2.50;;
35114;SDS011;21292;52.416;13.046;2023-08-07T07:45:52;3.40;;;2.70;;
35114;SDS011;21292;52.416;13.046;2023-08-07T07:48:22;2.75;;;2.33;;
35114;SDS011;21292;52.416;13.046;2023-08-07T07:50:51;6.28;;;2.50;;
35114;SDS011;21292;52.416;13.046;2023-08-07T07:53:22;4.22;;;2.95;;
35114;SDS011;21292;52.416;13.046;2023-08-07T07:55:51;5.38;;;2.55;;
35114;SDS011;21292;52.416;13.046;2023-08-07T07:58:21;6.03;;;2.60;;
35114;SDS011;21292;52.416;13.046;2023-08-07T08:00:51;4.40;;;2.47;;
35114;SDS011;21292;52.416;13.046;2023-08-07T08:03:21;5.97;;;2.83;;
35114;SDS011;21292;52.416;13.046;2023-08-07T08:05:51;3.90;;;2.85;;
35114;SDS011;21292;52.416;13.046;2023-08-07T08:08:20;7.13;;;2.83;;
35114;SDS011;21292;52.416;13.046;2023-08-07T08:10:48;4.25;;;2.67;;
35114;SDS011;21292;52.416;13.046;2023-08-07T08:13:18;3.15;;;2.00;;
35114;SDS011;21292;52.416;13.046;2023-08-07T08:15:50;5.10;;;2.80;;
35114;SDS011;21292;52.416;13.046;2023-08-07T08:18:19;5.53;;;2.80;;
35114;SDS011;21292;52.416;13.046;2023-08-07T08:20:47;4.93;;;2.55;;
35114;SDS011;21292;52.416;13.046;2023-08-07T08:23:16;5.35;;;3.08;;
35114;SDS011;21292;52.416;13.046;2023-08-07T08:25:47;8.20;;;2.78;;
35114;SDS011;21292;52.416;13.046;2023-08-07T08:28:16;4.53;;;2.88;;
35114;SDS011;21292;52.416;13.046;2023-08-07T08:30:45;9.43;;;2.60;;
35114;SDS011;21292;52.416;13.046;2023-08-07T08:33:16;3.42;;;2.40;;
35114;SDS011;21292;52.416;13.046;2023-08-07T08:35:46;3.77;;;2.47;;
35114;SDS011;21292;52.416;13.046;2023-08-07T08:38:14;4.00;;;3.05;;
35114;SDS011;21292;52.416;13.046;2023-08-07T08:40:46;6.07;;;2.40;;
35114;SDS011;21292;52.416;13.046;2023-08-07T08:43:15;4.35;;;2.38;;
35114;SDS011;21292;52.416;13.046;2023-08-07T08:45:43;4.03;;;2.78;;
35114;SDS011;21292;52.416;13.046;2023-08-07T08:48:13;2.58;;;2.38;;
35114;SDS011;21292;52.416;13.046;2023-08-07T08:50:49;4.50;;;2.28;;
35114;SDS011;21292;52.416;13.046;2023-08-07T08:53:18;4.00;;;2.70;;
35114;SDS011;21292;52.416;13.046;2023-08-07T08:55:55;2.90;;;2.22;;
35114;SDS011;21292;52.416;13.046;2023-08-07T08:58:40;4.45;;;2.60;;
35114;SDS011;21292;52.416;13.046;2023-08-07T09:01:10;5.00;;;2.45;;
35114;SDS011;21292;52.416;13.046;2023-08-07T09:03:40;4.32;;;2.13;;
35114;SDS011;21292;52.416;13.046;2023-08-07T09:06:09;2.83;;;2.10;;
35114;SDS011;21292;52.416;13.046;2023-08-07T09:08:38;5.38;;;2.20;;
35114;SDS011;21292;52.416;13.046;2023-08-07T09:11:10;4.50;;;1.90;;
35114;SDS011;21292;52.416;13.046;2023-08-07T09:13:39;4.43;;;2.00;;
35114;SDS011;21292;52.416;13.046;2023-08-07T09:16:09;6.78;;;2.25;;
35114;SDS011;21292;52.416;13.046;2023-08-07T09:18:37;4.30;;;1.80;;
35114;SDS011;21292;52.416;13.046;2023-08-07T09:21:08;5.60;;;1.77;;
35114;SDS011;21292;52.416;13.046;2023-08-07T09:23:37;3.47;;;1.67;;
35114;SDS011;21292;52.416;13.046;2023-08-07T09:26:09;4.28;;;1.50;;
35114;SDS011;21292;52.416;13.046;2023-08-07T09:28:38;3.67;;;1.67;;
35114;SDS011;21292;52.416;13.046;2023-08-07T09:31:07;4.43;;;1.58;;
35114;SDS011;21292;52.416;13.046;2023-08-07T09:33:36;6.75;;;2.25;;
35114;SDS011;21292;52.416;13.046;2023-08-07T09:36:08;4.47;;;1.80;;
35114;SDS011;21292;52.416;13.046;2023-08-07T09:38:36;4.50;;;1.55;;
35114;SDS011;21292;52.416;13.046;2023-08-07T09:41:05;3.00;;;1.85;;
35114;SDS011;21292;52.416;13.046;2023-08-07T09:43:34;8.98;;;2.20;;
35114;SDS011;21292;52.416;13.046;2023-08-07T09:46:04;3.30;;;1.50;;
35114;SDS011;21292;52.416;13.046;2023-08-07T09:48:39;1.88;;;1.65;;
35114;SDS011;21292;52.416;13.046;2023-08-07T09:51:09;4.90;;;1.80;;
35114;SDS011;21292;52.416;13.046;2023-08-07T09:53:38;2.80;;;1.38;;
35114;SDS011;21292;52.416;13.046;2023-08-07T09:56:07;7.47;;;2.03;;
35114;SDS011;21292;52.416;13.046;2023-08-07T09:58:36;4.63;;;1.70;;
35114;SDS011;21292;52.416;13.046;2023-08-07T10:01:04;7.50;;;1.95;;
35114;SDS011;21292;52.416;13.046;2023-08-07T10:03:36;3.75;;;1.52;;
35114;SDS011;21292;52.416;13.046;2023-08-07T10:06:05;2.80;;;1.67;;
35114;SDS011;21292;52.416;13.046;2023-08-07T10:08:35;1.65;;;1.48;;
35114;SDS011;21292;52.416;13.046;2023-08-07T10:11:04;2.47;;;1.60;;
35114;SDS011;21292;52.416;13.046;2023-08-07T10:13:33;6.15;;;2.00;;
35114;SDS011;21292;52.416;13.046;2023-08-07T10:16:05;6.10;;;1.50;;
35114;SDS011;21292;52.416;13.046;2023-08-07T10:18:35;4.78;;;1.40;;
35114;SDS011;21292;52.416;13.046;2023-08-07T10:21:05;3.47;;;1.75;;
35114;SDS011;21292;52.416;13.046;2023-08-07T10:23:35;3.90;;;1.50;;
35114;SDS011;21292;52.416;13.046;2023-08-07T10:26:05;5.57;;;1.67;;
35114;SDS011;21292;52.416;13.046;2023-08-07T10:28:35;3.03;;;1.33;;
35114;SDS011;21292;52.416;13.046;2023-08-07T10:31:07;5.53;;;1.52;;
35114;SDS011;21292;52.416;13.046;2023-08-07T10:33:38;4.20;;;2.05;;
35114;SDS011;21292;52.416;13.046;2023-08-07T10:36:10;3.55;;;1.35;;
35114;SDS011;21292;52.416;13.046;2023-08-07T10:38:41;5.57;;;1.90;;
35114;SDS011;21292;52.416;13.046;2023-08-07T10:41:13;4.47;;;1.52;;
35114;SDS011;21292;52.416;13.046;2023-08-07T10:43:43;2.70;;;1.35;;
35114;SDS011;21292;52.416;13.046;2023-08-07T10:46:14;5.00;;;1.60;;
35114;SDS011;21292;52.416;13.046;2023-08-07T10:48:53;6.05;;;2.00;;
35114;SDS011;21292;52.416;13.046;2023-08-07T10:51:27;3.35;;;1.60;;
35114;SDS011;21292;52.416;13.046;2023-08-07T10:53:59;8.07;;;1.70;;
35114;SDS011;21292;52.416;13.046;2023-08-07T10:56:31;8.93;;;1.90;;
35114;SDS011;21292;52.416;13.046;2023-08-07T10:59:07;3.77;;;1.50;;
35114;SDS011;21292;52.416;13.046;2023-08-07T11:01:40;5.88;;;2.20;;
35114;SDS011;21292;52.416;13.046;2023-08-07T11:04:10;4.53;;;1.73;;
35114;SDS011;21292;52.416;13.046;2023-08-07T11:06:42;3.42;;;1.70;;
35114;SDS011;21292;52.416;13.046;2023-08-07T11:09:14;3.00;;;2.00;;
35114;SDS011;21292;52.416;13.046;2023-08-07T11:11:44;3.58;;;1.60;;
35114;SDS011;21292;52.416;13.046;2023-08-07T11:14:13;3.80;;;1.70;;
35114;SDS011;21292;52.416;13.046;2023-08-07T11:16:43;3.97;;;2.10;;
35114;SDS011;21292;52.416;13.046;2023-08-07T11:19:15;4.43;;;2.20;;
35114;SDS011;21292;52.416;13.046;2023-08-07T11:21:47;4.10;;;2.08;;
35114;SDS011;21292;52.416;13.046;2023-08-07T11:24:19;2.95;;;1.67;;
35114;SDS011;21292;52.416;13.046;2023-08-07T11:26:48;6.32;;;2.47;;
35114;SDS011;21292;52.416;13.046;2023-08-07T11:29:17;4.40;;;1.75;;
35114;SDS011;21292;52.416;13.046;2023-08-07T11:31:46;4.30;;;2.35;;
35114;SDS011;21292;52.416;13.046;2023-08-07T11:34:15;4.00;;;2.03;;
35114;SDS011;21292;52.416;13.046;2023-08-07T11:36:46;4.10;;;1.80;;
35114;SDS011;21292;52.416;13.046;2023-08-07T11:39:15;2.15;;;1.63;;
35114;SDS011;21292;52.416;13.046;2023-08-07T11:41:46;3.63;;;1.73;;
35114;SDS011;21292;52.416;13.046;2023-08-07T11:44:15;5.43;;;2.28;;
35114;SDS011;21292;52.416;13.046;2023-08-07T11:46:44;4.50;;;2.22;;
35114;SDS011;21292;52.416;13.046;2023-08-07T11:49:12;4.95;;;2.20;;
35114;SDS011;21292;52.416;13.046;2023-08-07T11:51:43;6.43;;;1.90;;
35114;SDS011;21292;52.416;13.046;2023-08-07T11:54:14;4.05;;;1.50;;
35114;SDS011;21292;52.416;13.046;2023-08-07T11:56:45;2.40;;;1.50;;
35114;SDS011;21292;52.416;13.046;2023-08-07T11:59:18;4.55;;;1.77;;
35114;SDS011;21292;52.416;13.046;2023-08-07T12:01:52;3.85;;;1.58;;
35114;SDS011;21292;52.416;13.046;2023-08-07T12:04:22;4.05;;;1.40;;
35114;SDS011;21292;52.416;13.046;2023-08-07T12:06:54;4.22;;;1.88;;
35114;SDS011;21292;52.416;13.046;2023-08-07T12:09:32;4.22;;;1.60;;
35114;SDS011;21292;52.416;13.046;2023-08-07T12:12:04;5.50;;;1.98;;
35114;SDS011;21292;52.416;13.046;2023-08-07T12:14:39;2.13;;;1.10;;
35114;SDS011;21292;52.416;13.046;2023-08-07T12:17:08;4.00;;;1.30;;
35114;SDS011;21292;52.416;13.046;2023-08-07T12:19:41;3.92;;;1.40;;
35114;SDS011;21292;52.416;13.046;2023-08-07T12:22:13;2.35;;;1.48;;
35114;SDS011;21292;52.416;13.046;2023-08-07T12:24:50;4.93;;;1.40;;
35114;SDS011;21292;52.416;13.046;2023-08-07T12:27:22;3.13;;;1.20;;
35114;SDS011;21292;52.416;13.046;2023-08-07T12:29:53;3.65;;;1.30;;
35114;SDS011;21292;52.416;13.046;2023-08-07T12:32:22;5.18;;;1.60;;
35114;SDS011;21292;52.416;13.046;2023-08-07T12:34:51;6.18;;;1.77;;
35114;SDS011;21292;52.416;13.046;2023-08-07T12:37:23;3.30;;;1.27;;
35114;SDS011;21292;52.416;13.046;2023-08-07T12:39:52;2.42;;;1.23;;
35114;SDS011;21292;52.416;13.046;2023-08-07T12:42:25;3.63;;;1.30;;
35114;SDS011;21292;52.416;13.046;2023-08-07T12:44:57;4.03;;;1.45;;
35114;SDS011;21292;52.416;13.046;2023-08-07T12:47:34;5.43;;;1.63;;
35114;SDS011;21292;52.416;13.046;2023-08-07T12:50:10;6.97;;;1.90;;
35114;SDS011;21292;52.416;13.046;2023-08-07T12:52:39;7.72;;;2.00;;
35114;SDS011;21292;52.416;13.046;2023-08-07T12:55:10;7.03;;;1.92;;
35114;SDS011;21292;52.416;13.046;2023-08-07T12:57:42;4.18;;;1.65;;
35114;SDS011;21292;52.416;13.046;2023-08-07T13:00:15;5.45;;;1.70;;
35114;SDS011;21292;52.416;13.046;2023-08-07T13:02:46;7.22;;;2.08;;
35114;SDS011;21292;52.416;13.046;2023-08-07T13:05:16;8.50;;;2.10;;
35114;SDS011;21292;52.416;13.046;2023-08-07T13:07:45;5.88;;;1.83;;
35114;SDS011;21292;52.416;13.046;2023-08-07T13:10:16;7.97;;;2.10;;
35114;SDS011;21292;52.416;13.046;2023-08-07T13:12:51;8.77;;;2.17;;
35114;SDS011;21292;52.416;13.046;2023-08-07T13:15:23;3.70;;;1.55;;
35114;SDS011;21292;52.416;13.046;2023-08-07T13:17:52;5.47;;;1.98;;
35114;SDS011;21292;52.416;13.046;2023-08-07T13:20:22;5.65;;;2.20;;
35114;SDS011;21292;52.416;13.046;2023-08-07T13:22:54;9.52;;;2.25;;
35114;SDS011;21292;52.416;13.046;2023-08-07T13:25:25;5.07;;;1.85;;
35114;SDS011;21292;52.416;13.046;2023-08-07T13:27:56;5.95;;;2.05;;
35114;SDS011;21292;52.416;13.046;2023-08-07T13:30:27;6.57;;;2.28;;
35114;SDS011;21292;52.416;13.046;2023-08-07T13:33:02;9.27;;;1.83;;
35114;SDS011;21292;52.416;13.046;2023-08-07T13:35:32;5.75;;;1.70;;
35114;SDS011;21292;52.416;13.046;2023-08-07T13:38:01;7.82;;;2.05;;
35114;SDS011;21292;52.416;13.046;2023-08-07T13:40:32;7.90;;;2.78;;
35114;SDS011;21292;52.416;13.046;2023-08-07T13:43:03;4.28;;;1.65;;
35114;SDS011;21292;52.416;13.046;2023-08-07T13:45:36;8.68;;;2.47;;
35114;SDS011;21292;52.416;13.046;2023-08-07T13:48:07;9.85;;;1.90;;
35114;SDS011;21292;52.416;13.046;2023-08-07T13:50:45;8.25;;;2.10;;
35114;SDS011;21292;52.416;13.046;2023-08-07T13:53:16;4.00;;;1.67;;
35114;SDS011;21292;52.416;13.046;2023-08-07T13:55:47;3.75;;;1.55;;
35114;SDS011;21292;52.416;13.046;2023-08-07T13:58:18;2.58;;;1.25;;
35114;SDS011;21292;52.416;13.046;2023-08-07T14:00:48;3.33;;;1.13;;
35114;SDS011;21292;52.416;13.046;2023-08-07T14:03:17;3.30;;;1.25;;
35114;SDS011;21292;52.416;13.046;2023-08-07T14:05:57;4.03;;;1.52;;
35114;SDS011;21292;52.416;13.046;2023-08-07T14:08:25;5.05;;;1.60;;
35114;SDS011;21292;52.416;13.046;2023-08-07T14:10:56;13.93;;;2.05;;
35114;SDS011;21292;52.416;13.046;2023-08-07T14:13:39;7.65;;;1.33;;
35114;SDS011;21292;52.416;13.046;2023-08-07T14:16:08;5.75;;;1.50;;
35114;SDS011;21292;52.416;13.046;2023-08-07T14:18:37;7.70;;;2.60;;
35114;SDS011;21292;52.416;13.046;2023-08-07T14:21:07;7.65;;;2.25;;
35114;SDS011;21292;52.416;13.046;2023-08-07T14:23:36;10.20;;;2.70;;
35114;SDS011;21292;52.416;13.046;2023-08-07T14:26:05;4.25;;;2.35;;
35114;SDS011;21292;52.416;13.046;2023-08-07T14:28:34;7.20;;;2.55;;
35114;SDS011;21292;52.416;13.046;2023-08-07T14:31:09;7.20;;;2.25;;
35114;SDS011;21292;52.416;13.046;2023-08-07T14:33:42;6.53;;;1.80;;
35114;SDS011;21292;52.416;13.046;2023-08-07T14:36:11;8.45;;;2.25;;
35114;SDS011;21292;52.416;13.046;2023-08-07T14:38:50;5.60;;;2.03;;
35114;SDS011;21292;52.416;13.046;2023-08-07T14:41:21;9.43;;;2.78;;
35114;SDS011;21292;52.416;13.046;2023-08-07T14:44:04;4.82;;;2.20;;
35114;SDS011;21292;52.416;13.046;2023-08-07T14:46:35;5.53;;;2.28;;